createdAt,value
2018-04-08T00:00:00.535Z,0
2018-04-08T00:01:10.308Z,0
2018-04-08T00:02:20.323Z,0
2018-04-08T00:03:30.069Z,0
2018-04-08T00:04:39.820Z,0
2018-04-08T00:05:49.576Z,0
2018-04-08T00:06:59.574Z,0
2018-04-08T00:08:09.601Z,0
2018-04-08T00:09:19.357Z,0
2018-04-08T00:10:29.119Z,0
2018-04-08T00:11:39.132Z,0
2018-04-08T00:12:49.144Z,0
2018-04-08T00:13:59.145Z,0
2018-04-08T00:15:09.185Z,0
2018-04-08T00:16:19.255Z,0
2018-04-08T00:17:29.005Z,0
2018-04-08T00:18:39.185Z,0
2018-04-08T00:19:49.035Z,0
2018-04-08T00:20:58.565Z,0
2018-04-08T00:22:08.604Z,0
2018-04-08T00:23:18.456Z,0
2018-04-08T00:24:28.480Z,0
2018-04-08T00:25:38.489Z,0
2018-04-08T00:26:48.269Z,0
2018-04-08T00:27:58.264Z,0
2018-04-08T00:29:08.371Z,0
2018-04-08T00:30:18.418Z,0
2018-04-08T00:31:28.184Z,0
2018-04-08T00:32:38.182Z,0
2018-04-08T00:33:47.946Z,0
2018-04-08T00:34:57.726Z,0
2018-04-08T00:36:07.743Z,0
2018-04-08T00:37:17.231Z,0
2018-04-08T00:38:27.245Z,0
2018-04-08T00:39:37.010Z,0
2018-04-08T00:40:47.030Z,0
2018-04-08T00:41:57.043Z,0
2018-04-08T00:43:07.294Z,0
2018-04-08T00:44:17.307Z,0
2018-04-08T00:45:26.805Z,0
2018-04-08T00:46:36.819Z,0
2018-04-08T00:47:46.845Z,0
2018-04-08T00:48:56.343Z,0
2018-04-08T00:50:06.377Z,0
2018-04-08T00:51:16.140Z,0
2018-04-08T00:52:26.137Z,0
2018-04-08T00:53:36.150Z,0
2018-04-08T00:54:45.900Z,0
2018-04-08T00:55:55.914Z,0
2018-04-08T00:57:05.759Z,0
2018-04-08T00:58:15.766Z,0
2018-04-08T00:59:25.546Z,0
2018-04-08T01:00:34.774Z,0
2018-04-08T01:01:44.995Z,0
2018-04-08T01:02:55.094Z,0
2018-04-08T01:04:05.543Z,0
2018-04-08T01:05:15.540Z,0
2018-04-08T01:06:25.301Z,0
2018-04-08T01:07:35.324Z,0
2018-04-08T01:08:45.333Z,0
2018-04-08T01:09:55.336Z,0
2018-04-08T01:11:05.107Z,0
2018-04-08T01:12:14.869Z,0
2018-04-08T01:13:24.904Z,0
2018-04-08T01:14:34.714Z,0
2018-04-08T01:15:44.465Z,0
2018-04-08T01:16:54.240Z,0
2018-04-08T01:18:03.999Z,0
2018-04-08T01:19:13.998Z,0
2018-04-08T01:20:23.795Z,0
2018-04-08T01:21:33.548Z,0
2018-04-08T01:22:43.045Z,0
2018-04-08T01:23:52.536Z,0
2018-04-08T01:25:02.038Z,0
2018-04-08T01:26:12.120Z,0
2018-04-08T01:27:22.133Z,0
2018-04-08T01:28:31.890Z,0
2018-04-08T01:29:41.894Z,0
2018-04-08T01:30:51.883Z,0
2018-04-08T01:32:01.923Z,0
2018-04-08T01:33:11.431Z,0
2018-04-08T01:34:21.485Z,0
2018-04-08T01:35:31.562Z,0
2018-04-08T01:36:41.640Z,0
2018-04-08T01:37:51.433Z,0
2018-04-08T01:39:01.498Z,0
2018-04-08T01:40:11.300Z,0
2018-04-08T01:41:20.846Z,0
2018-04-08T01:42:30.929Z,0
2018-04-08T01:43:40.467Z,0
2018-04-08T01:44:50.591Z,0
2018-04-08T01:46:00.413Z,0
2018-04-08T01:47:09.971Z,0
2018-04-08T01:48:19.787Z,0
2018-04-08T01:49:29.598Z,0
2018-04-08T01:50:39.390Z,0
2018-04-08T01:51:48.975Z,0
2018-04-08T01:52:59.048Z,0
2018-04-08T01:54:09.117Z,0
2018-04-08T01:55:19.249Z,0
2018-04-08T01:56:29.316Z,0
2018-04-08T01:57:39.400Z,0
2018-04-08T01:58:49.208Z,0
2018-04-08T02:00:02.634Z,0
2018-04-08T02:01:12.696Z,0
2018-04-08T02:02:22.962Z,0
2018-04-08T02:03:33.036Z,0
2018-04-08T02:04:42.823Z,0
2018-04-08T02:05:52.899Z,0
2018-04-08T02:07:03.043Z,0
2018-04-08T02:08:13.113Z,0
2018-04-08T02:09:23.199Z,0
2018-04-08T02:10:33.287Z,0
2018-04-08T02:11:43.085Z,0
2018-04-08T02:12:52.906Z,0
2018-04-08T02:14:02.977Z,0
2018-04-08T02:15:13.051Z,0
2018-04-08T02:16:22.861Z,0
2018-04-08T02:17:32.660Z,0
2018-04-08T02:18:42.796Z,0
2018-04-08T02:19:52.071Z,0
2018-04-08T02:21:02.138Z,0
2018-04-08T02:22:11.695Z,0
2018-04-08T02:23:21.517Z,0
2018-04-08T02:24:31.400Z,0
2018-04-08T02:25:40.915Z,0
2018-04-08T02:26:50.766Z,0
2018-04-08T02:28:00.867Z,0
2018-04-08T02:29:10.695Z,0
2018-04-08T02:30:20.766Z,0
2018-04-08T02:31:30.621Z,0
2018-04-08T02:32:40.709Z,0
2018-04-08T02:33:50.253Z,0
2018-04-08T02:35:00.067Z,0
2018-04-08T02:36:09.878Z,0
2018-04-08T02:37:19.686Z,0
2018-04-08T02:38:29.512Z,0
2018-04-08T02:39:39.606Z,0
2018-04-08T02:40:49.724Z,0
2018-04-08T02:41:59.822Z,0
2018-04-08T02:43:09.898Z,0
2018-04-08T02:44:19.708Z,0
2018-04-08T02:45:29.257Z,0
2018-04-08T02:46:39.365Z,0
2018-04-08T02:47:49.512Z,0
2018-04-08T02:48:59.318Z,0
2018-04-08T02:50:09.394Z,0
2018-04-08T02:51:19.472Z,0
2018-04-08T02:52:29.555Z,0
2018-04-08T02:53:39.696Z,0
2018-04-08T02:54:49.510Z,0
2018-04-08T02:55:59.318Z,0
2018-04-08T02:57:09.404Z,0
2018-04-08T02:58:19.493Z,0
2018-04-08T02:59:29.635Z,0
2018-04-08T03:00:39.707Z,0
2018-04-08T03:01:49.244Z,0
2018-04-08T03:33:44.475Z,0
2018-04-08T03:34:54.529Z,0
2018-04-08T03:36:04.608Z,0
2018-04-08T03:37:14.673Z,0
2018-04-08T03:38:24.488Z,0
2018-04-08T03:39:34.605Z,0
2018-04-08T03:40:44.150Z,0
2018-04-08T03:41:53.959Z,0
2018-04-08T03:43:03.766Z,0
2018-04-08T03:44:13.307Z,0
2018-04-08T03:45:23.382Z,0
2018-04-08T03:46:33.192Z,0
2018-04-08T03:47:43.272Z,0
2018-04-08T03:48:53.350Z,0
2018-04-08T03:50:02.896Z,0
2018-04-08T03:51:12.452Z,0
2018-04-08T03:52:22.524Z,0
2018-04-08T03:53:32.065Z,4
2018-04-08T03:54:42.151Z,0
2018-04-08T03:55:51.690Z,0
2018-04-08T03:57:01.953Z,4
2018-04-08T03:58:11.766Z,4
2018-04-08T03:59:21.303Z,4
2018-04-08T04:00:31.116Z,8
2018-04-08T04:01:40.683Z,8
2018-04-08T04:02:50.805Z,8
2018-04-08T04:04:00.616Z,8
2018-04-08T04:05:10.684Z,12
2018-04-08T04:06:20.759Z,12
2018-04-08T04:07:30.568Z,16
2018-04-08T04:08:40.679Z,20
2018-04-08T04:09:50.754Z,24
2018-04-08T04:11:00.832Z,28
2018-04-08T04:12:10.388Z,28
2018-04-08T04:13:19.669Z,36
2018-04-08T04:14:29.217Z,40
2018-04-08T04:15:39.301Z,48
2018-04-08T04:16:48.603Z,56
2018-04-08T04:17:58.137Z,64
2018-04-08T04:19:07.960Z,76
2018-04-08T04:20:18.017Z,88
2018-04-08T04:21:27.833Z,96
2018-04-08T04:22:37.907Z,112
2018-04-08T04:23:47.977Z,120
2018-04-08T04:24:58.040Z,132
2018-04-08T04:26:07.852Z,140
2018-04-08T04:27:17.383Z,148
2018-04-08T04:28:27.438Z,160
2018-04-08T04:29:37.518Z,168
2018-04-08T04:30:47.313Z,180
2018-04-08T04:31:57.437Z,196
2018-04-08T04:33:07.272Z,208
2018-04-08T04:34:16.839Z,216
2018-04-08T04:35:26.915Z,216
2018-04-08T04:36:36.986Z,204
2018-04-08T04:37:46.912Z,196
2018-04-08T04:38:56.719Z,216
2018-04-08T04:40:06.518Z,184
2018-04-08T04:41:16.584Z,196
2018-04-08T04:42:26.114Z,200
2018-04-08T04:43:35.962Z,212
2018-04-08T04:44:45.766Z,196
2018-04-08T04:45:55.839Z,188
2018-04-08T04:47:05.378Z,204
2018-04-08T04:48:15.488Z,192
2018-04-08T04:49:25.582Z,176
2018-04-08T04:50:35.397Z,180
2018-04-08T04:51:45.213Z,184
2018-04-08T04:52:55.287Z,192
2018-04-08T04:54:04.845Z,200
2018-04-08T04:55:14.654Z,200
2018-04-08T04:56:24.716Z,228
2018-04-08T04:57:33.980Z,232
2018-04-08T04:58:43.776Z,224
2018-04-08T04:59:53.592Z,228
2018-04-08T05:01:02.601Z,236
2018-04-08T05:02:12.131Z,244
2018-04-08T05:03:21.671Z,276
2018-04-08T05:04:31.744Z,308
2018-04-08T05:05:41.821Z,304
2018-04-08T05:06:51.616Z,392
2018-04-08T05:08:01.700Z,436
2018-04-08T05:09:11.780Z,436
2018-04-08T05:10:21.857Z,420
2018-04-08T05:11:31.713Z,468
2018-04-08T05:12:41.768Z,500
2018-04-08T05:13:51.845Z,500
2018-04-08T05:15:01.719Z,496
2018-04-08T05:16:11.789Z,584
2018-04-08T05:17:21.347Z,600
2018-04-08T05:18:31.493Z,596
2018-04-08T05:19:41.062Z,628
2018-04-08T05:20:50.596Z,632
2018-04-08T05:22:00.415Z,656
2018-04-08T05:23:10.616Z,652
2018-04-08T05:24:20.192Z,664
2018-04-08T05:25:29.735Z,720
2018-04-08T05:26:39.548Z,744
2018-04-08T05:27:49.358Z,808
2018-04-08T05:28:59.168Z,864
2018-04-08T05:30:08.772Z,880
2018-04-08T05:31:18.840Z,936
2018-04-08T05:32:28.631Z,948
2018-04-08T05:33:38.718Z,1132
2018-04-08T05:34:48.514Z,1052
2018-04-08T05:35:58.113Z,1160
2018-04-08T05:37:07.664Z,1168
2018-04-08T05:38:17.739Z,1096
2018-04-08T05:39:27.013Z,1172
2018-04-08T05:40:37.094Z,1120
2018-04-08T05:41:46.912Z,1076
2018-04-08T05:42:56.734Z,1180
2018-04-08T05:44:06.539Z,1024
2018-04-08T05:45:16.339Z,1096
2018-04-08T05:46:26.154Z,1312
2018-04-08T05:47:36.255Z,1144
2018-04-08T05:48:45.799Z,1252
2018-04-08T05:49:55.622Z,1404
2018-04-08T05:51:05.427Z,1644
2018-04-08T05:52:15.242Z,1656
2018-04-08T05:53:24.846Z,1808
2018-04-08T05:54:34.660Z,1800
2018-04-08T05:55:44.478Z,1696
2018-04-08T05:56:54.541Z,1816
2018-04-08T05:58:04.736Z,1800
2018-04-08T05:59:14.920Z,2196
2018-04-08T06:00:24.463Z,1996
2018-04-08T06:01:34.007Z,2040
2018-04-08T06:02:43.543Z,1972
2018-04-08T06:03:53.469Z,2176
2018-04-08T06:05:03.343Z,2064
2018-04-08T06:06:13.149Z,2092
2018-04-08T06:07:22.706Z,2220
2018-04-08T06:08:32.261Z,2384
2018-04-08T06:09:42.335Z,2336
2018-04-08T06:10:52.438Z,2316
2018-04-08T06:12:02.530Z,2528
2018-04-08T06:13:12.340Z,2296
2018-04-08T06:14:22.161Z,2420
2018-04-08T06:15:32.247Z,2568
2018-04-08T06:16:42.102Z,2376
2018-04-08T06:17:52.175Z,2364
2018-04-08T06:19:01.454Z,2372
2018-04-08T06:20:11.528Z,2460
2018-04-08T06:21:21.338Z,2600
2018-04-08T06:22:31.156Z,2348
2018-04-08T06:23:40.975Z,2692
2018-04-08T06:24:50.526Z,2700
2018-04-08T06:26:00.404Z,2752
2018-04-08T06:27:09.955Z,2684
2018-04-08T06:28:19.790Z,2676
2018-04-08T06:29:29.875Z,2916
2018-04-08T06:30:39.738Z,2760
2018-04-08T06:31:49.863Z,2788
2018-04-08T06:32:59.934Z,3016
2018-04-08T06:34:10.018Z,2852
2018-04-08T06:35:20.093Z,2844
2018-04-08T06:36:30.158Z,3260
2018-04-08T06:37:40.229Z,3084
2018-04-08T06:38:50.045Z,3184
2018-04-08T06:39:59.347Z,3396
2018-04-08T06:41:09.185Z,4028
2018-04-08T06:42:19.263Z,4432
2018-04-08T06:43:29.075Z,4504
2018-04-08T06:44:38.969Z,4736
2018-04-08T06:45:49.052Z,4400
2018-04-08T06:46:59.097Z,4896
2018-04-08T06:48:08.940Z,5032
2018-04-08T06:49:18.490Z,5144
2018-04-08T06:50:28.324Z,4484
2018-04-08T06:51:38.441Z,5004
2018-04-08T06:52:48.252Z,4200
2018-04-08T06:53:57.808Z,4388
2018-04-08T06:55:07.635Z,4752
2018-04-08T06:56:17.462Z,4892
2018-04-08T06:57:27.521Z,4776
2018-04-08T06:58:37.327Z,5768
2018-04-08T06:59:47.430Z,4988
2018-04-08T07:00:57.512Z,5160
2018-04-08T07:02:07.608Z,5392
2018-04-08T07:03:17.757Z,5076
2018-04-08T07:04:27.570Z,5576
2018-04-08T07:05:37.386Z,5732
2018-04-08T07:06:46.950Z,5476
2018-04-08T07:07:56.761Z,4860
2018-04-08T07:09:06.315Z,6372
2018-04-08T07:10:16.389Z,5616
2018-04-08T07:11:26.450Z,5204
2018-04-08T07:12:36.022Z,5872
2018-04-08T07:13:46.114Z,6316
2018-04-08T07:14:56.222Z,5192
2018-04-08T07:16:06.299Z,6472
2018-04-08T07:17:16.408Z,6392
2018-04-08T07:18:26.877Z,5644
2018-04-08T07:19:36.848Z,6388
2018-04-08T07:20:46.931Z,6156
2018-04-08T07:21:57.002Z,5736
2018-04-08T07:23:06.542Z,5492
2018-04-08T07:24:15.828Z,5908
2018-04-08T07:25:25.626Z,4820
2018-04-08T07:26:35.493Z,5868
2018-04-08T07:27:45.327Z,4800
2018-04-08T07:28:55.146Z,5360
2018-04-08T07:30:04.979Z,5276
2018-04-08T07:31:14.816Z,5512
2018-04-08T07:32:24.700Z,5996
2018-04-08T07:33:34.800Z,4992
2018-04-08T07:34:44.622Z,4928
2018-04-08T07:35:54.175Z,5768
2018-04-08T07:37:03.993Z,5344
2018-04-08T07:38:14.156Z,5176
2018-04-08T07:39:24.262Z,6100
2018-04-08T07:40:34.338Z,4968
2018-04-08T07:41:44.166Z,5932
2018-04-08T07:42:54.000Z,6220
2018-04-08T07:44:03.808Z,6516
2018-04-08T07:45:13.887Z,4988
2018-04-08T07:46:24.042Z,6304
2018-04-08T07:47:33.858Z,6300
2018-04-08T07:48:43.952Z,5140
2018-04-08T07:49:54.115Z,5592
2018-04-08T07:51:04.264Z,6456
2018-04-08T07:52:14.341Z,4876
2018-04-08T07:53:24.164Z,5420
2018-04-08T07:54:34.289Z,6444
2018-04-08T07:55:44.373Z,5392
2018-04-08T07:56:54.229Z,6188
2018-04-08T07:58:04.046Z,6208
2018-04-08T07:59:14.315Z,4904
2018-04-08T08:00:24.401Z,6788
2018-04-08T08:01:34.489Z,6288
2018-04-08T08:02:44.581Z,6072
2018-04-08T08:03:54.420Z,6076
2018-04-08T08:05:04.514Z,5848
2018-04-08T08:06:14.341Z,6160
2018-04-08T08:07:24.173Z,5892
2018-04-08T08:08:34.241Z,6152
2018-04-08T08:09:44.327Z,6100
2018-04-08T08:10:54.449Z,6240
2018-04-08T08:12:04.533Z,6064
2018-04-08T08:13:14.614Z,5948
2018-04-08T08:14:24.427Z,5648
2018-04-08T08:15:34.586Z,6756
2018-04-08T08:16:44.673Z,6012
2018-04-08T08:17:54.753Z,6264
2018-04-08T08:19:04.884Z,5820
2018-04-08T08:20:14.964Z,6876
2018-04-08T08:21:25.041Z,6672
2018-04-08T08:22:35.178Z,6604
2018-04-08T08:23:45.430Z,6096
2018-04-08T08:24:55.523Z,6716
2018-04-08T08:26:05.091Z,6176
2018-04-08T08:27:15.178Z,6652
2018-04-08T08:28:25.282Z,6700
2018-04-08T08:29:35.376Z,6588
2018-04-08T08:30:45.281Z,6796
2018-04-08T08:31:55.437Z,6816
2018-04-08T08:33:05.268Z,6532
2018-04-08T08:34:15.104Z,6592
2018-04-08T08:35:25.203Z,6576
2018-04-08T08:36:34.794Z,6332
2018-04-08T08:37:44.899Z,6968
2018-04-08T08:38:54.734Z,6528
2018-04-08T08:40:04.811Z,6444
2018-04-08T08:41:14.933Z,6156
2018-04-08T08:42:24.784Z,6052
2018-04-08T08:43:34.951Z,6408
2018-04-08T08:44:45.283Z,6336
2018-04-08T08:45:55.398Z,6312
2018-04-08T08:47:05.261Z,6192
2018-04-08T08:48:15.458Z,6348
2018-04-08T08:49:25.569Z,6172
2018-04-08T08:50:35.663Z,6368
2018-04-08T08:51:45.530Z,6308
2018-04-08T08:52:55.381Z,6320
2018-04-08T08:54:05.542Z,6272
2018-04-08T08:55:15.377Z,6436
2018-04-08T08:56:25.350Z,6316
2018-04-08T08:57:34.943Z,6448
2018-04-08T08:58:44.800Z,6396
2018-04-08T08:59:54.898Z,6408
2018-04-08T09:01:05.011Z,6576
2018-04-08T09:02:14.848Z,6548
2018-04-08T09:03:24.659Z,6532
2018-04-08T09:04:34.746Z,6796
2018-04-08T09:05:44.607Z,6520
2018-04-08T09:06:54.735Z,6588
2018-04-08T09:08:05.039Z,6032
2018-04-08T09:09:15.129Z,6564
2018-04-08T09:10:25.252Z,6684
2018-04-08T09:11:35.142Z,6472
2018-04-08T09:12:44.969Z,6664
2018-04-08T09:13:54.783Z,6668
2018-04-08T09:15:04.862Z,6708
2018-04-08T09:16:14.685Z,6468
2018-04-08T09:17:24.832Z,6996
2018-04-08T09:18:35.011Z,6912
2018-04-08T09:19:44.849Z,6824
2018-04-08T09:20:54.954Z,6928
2018-04-08T09:22:04.536Z,6756
2018-04-08T09:23:14.392Z,6912
2018-04-08T09:24:24.510Z,6812
2018-04-08T09:25:34.630Z,6860
2018-04-08T09:26:44.527Z,6868
2018-04-08T09:27:54.446Z,7032
2018-04-08T09:29:04.304Z,6800
2018-04-08T09:30:14.448Z,6816
2018-04-08T09:31:24.554Z,7076
2018-04-08T09:32:34.416Z,7024
2018-04-08T09:33:44.519Z,6976
2018-04-08T09:34:54.661Z,7100
2018-04-08T09:36:04.777Z,7200
2018-04-08T09:37:14.882Z,7192
2018-04-08T09:38:24.468Z,7020
2018-04-08T09:39:34.573Z,6972
2018-04-08T09:40:44.677Z,7280
2018-04-08T09:41:54.552Z,6104
2018-04-08T09:43:04.668Z,7084
2018-04-08T09:44:14.795Z,6952
2018-04-08T09:45:24.646Z,7072
2018-04-08T09:46:34.509Z,6772
2018-04-08T09:47:44.361Z,7148
2018-04-08T09:48:54.197Z,6924
2018-04-08T09:50:04.295Z,6884
2018-04-08T09:51:14.400Z,7112
2018-04-08T09:52:23.708Z,6904
2018-04-08T09:53:33.829Z,7024
2018-04-08T09:54:43.644Z,6988
2018-04-08T09:55:53.766Z,6912
2018-04-08T09:57:03.804Z,7084
2018-04-08T09:58:13.931Z,6920
2018-04-08T09:59:23.942Z,6852
2018-04-08T10:00:33.257Z,7064
2018-04-08T10:01:43.443Z,7108
2018-04-08T10:02:53.360Z,7120
2018-04-08T10:04:03.352Z,7088
2018-04-08T10:05:13.766Z,7036
2018-04-08T10:06:23.980Z,6984
2018-04-08T10:07:34.024Z,6952
2018-04-08T10:08:44.569Z,7212
2018-04-08T10:09:54.447Z,7048
2018-04-08T10:11:04.586Z,7104
2018-04-08T10:12:14.880Z,7260
2018-04-08T10:13:25.053Z,7132
2018-04-08T10:14:34.488Z,7176
2018-04-08T10:15:44.411Z,7180
2018-04-08T10:16:55.097Z,7100
2018-04-08T10:18:06.513Z,7248
2018-04-08T10:19:18.060Z,7052
2018-04-08T10:20:28.759Z,7136
2018-04-08T10:21:40.199Z,7160
2018-04-08T10:22:51.569Z,7212
2018-04-08T10:24:02.896Z,7120
2018-04-08T10:25:13.813Z,7224
2018-04-08T10:26:24.913Z,7160
2018-04-08T10:27:36.223Z,7296
2018-04-08T10:28:47.379Z,7312
2018-04-08T10:29:57.978Z,7088
2018-04-08T10:31:08.422Z,7248
2018-04-08T10:32:18.573Z,7292
2018-04-08T10:33:29.734Z,7260
2018-04-08T10:34:40.293Z,7284
2018-04-08T10:35:50.150Z,7332
2018-04-08T10:37:00.264Z,7160
2018-04-08T10:38:10.100Z,7244
2018-04-08T10:39:20.251Z,7304
2018-04-08T10:40:30.104Z,7252
2018-04-08T10:41:40.011Z,7304
2018-04-08T10:42:49.871Z,7352
2018-04-08T10:46:40.207Z,7280
2018-04-08T10:47:50.372Z,7360
2018-04-08T10:49:00.228Z,7296
2018-04-08T10:50:10.361Z,7376
2018-04-08T10:51:20.467Z,7464
2018-04-08T10:52:30.572Z,7472
2018-04-08T10:53:40.685Z,7488
2018-04-08T10:54:50.813Z,7464
2018-04-08T10:56:00.924Z,7460
2018-04-08T10:57:11.011Z,7472
2018-04-08T10:58:21.225Z,7376
2018-04-08T10:59:31.309Z,7484
2018-04-08T11:00:41.424Z,7376
2018-04-08T11:01:51.530Z,7484
2018-04-08T11:03:01.928Z,7488
2018-04-08T11:04:12.025Z,7496
2018-04-08T11:05:22.129Z,7564
2018-04-08T11:06:32.235Z,7508
2018-04-08T11:07:42.064Z,7548
2018-04-08T11:08:52.169Z,7480
2018-04-08T11:10:02.317Z,7404
2018-04-08T11:11:12.156Z,7468
2018-04-08T11:12:22.254Z,7532
2018-04-08T11:13:32.363Z,7404
2018-04-08T11:14:42.477Z,7548
2018-04-08T11:15:52.618Z,7492
2018-04-08T11:17:03.047Z,7388
2018-04-08T11:18:13.156Z,7536
2018-04-08T11:19:22.981Z,7348
2018-04-08T11:20:33.095Z,7304
2018-04-08T11:21:43.177Z,7256
2018-04-08T11:22:53.303Z,7308
2018-04-08T11:24:03.416Z,7360
2018-04-08T11:25:13.004Z,7352
2018-04-08T11:26:23.079Z,7420
2018-04-08T11:27:33.232Z,7448
2018-04-08T11:28:43.337Z,7464
2018-04-08T11:29:53.808Z,7468
2018-04-08T11:31:03.922Z,7488
2018-04-08T11:32:14.039Z,7696
2018-04-08T11:33:23.607Z,7788
2018-04-08T11:34:33.895Z,7792
2018-04-08T11:35:43.980Z,7784
2018-04-08T11:36:53.783Z,7804
2018-04-08T11:38:03.354Z,7940
2018-04-08T11:39:13.511Z,7980
2018-04-08T11:40:23.625Z,7940
2018-04-08T11:41:32.933Z,8028
2018-04-08T11:42:42.487Z,8252
2018-04-08T11:43:52.589Z,8096
2018-04-08T11:45:02.820Z,8068
2018-04-08T11:46:12.900Z,8160
2018-04-08T11:47:22.913Z,8300
2018-04-08T11:48:32.762Z,8364
2018-04-08T11:49:42.338Z,8292
2018-04-08T11:50:52.443Z,8248
2018-04-08T11:52:02.316Z,8264
2018-04-08T11:53:12.148Z,8312
2018-04-08T11:54:21.987Z,8248
2018-04-08T11:55:31.567Z,8088
2018-04-08T11:56:41.456Z,8336
2018-04-08T11:57:51.038Z,8088
2018-04-08T11:59:01.392Z,8168
2018-04-08T12:00:11.229Z,8032
2018-04-08T12:01:21.315Z,7988
2018-04-08T12:02:31.453Z,7992
2018-04-08T12:03:41.047Z,7812
2018-04-08T12:04:51.155Z,7852
2018-04-08T12:06:00.723Z,7712
2018-04-08T12:07:10.828Z,7812
2018-04-08T12:08:20.985Z,7652
2018-04-08T12:09:31.096Z,7532
2018-04-08T12:10:40.925Z,7984
2018-04-08T12:11:51.086Z,8060
2018-04-08T12:13:01.624Z,7864
2018-04-08T12:14:11.796Z,7928
2018-04-08T12:15:21.895Z,8036
2018-04-08T12:16:32.274Z,8024
2018-04-08T12:17:42.371Z,8020
2018-04-08T12:18:52.475Z,7836
2018-04-08T12:20:02.596Z,7900
2018-04-08T12:21:13.163Z,7968
2018-04-08T12:22:23.253Z,7872
2018-04-08T12:23:33.589Z,7756
2018-04-08T12:24:43.433Z,7872
2018-04-08T12:25:53.601Z,7768
2018-04-08T12:27:03.719Z,7812
2018-04-08T12:28:13.298Z,7748
2018-04-08T12:29:23.113Z,7672
2018-04-08T12:30:32.942Z,7604
2018-04-08T12:31:42.850Z,7684
2018-04-08T12:32:52.946Z,7656
2018-04-08T12:34:02.521Z,7648
2018-04-08T12:35:12.367Z,7576
2018-04-08T12:36:22.456Z,7560
2018-04-08T12:37:32.554Z,7536
2018-04-08T12:38:42.396Z,7520
2018-04-08T12:39:52.500Z,7496
2018-04-08T12:41:02.615Z,7536
2018-04-08T12:42:12.721Z,7444
2018-04-08T12:43:22.883Z,7448
2018-04-08T12:44:33.039Z,7408
2018-04-08T12:45:42.592Z,7404
2018-04-08T12:46:52.441Z,7372
2018-04-08T12:48:02.248Z,7408
2018-04-08T12:49:12.340Z,7400
2018-04-08T12:50:21.919Z,7320
2018-04-08T12:51:31.476Z,7300
2018-04-08T12:52:41.048Z,7300
2018-04-08T12:53:51.159Z,7276
2018-04-08T12:55:01.581Z,7212
2018-04-08T12:56:11.410Z,7224
2018-04-08T12:57:21.568Z,7208
2018-04-08T12:58:31.765Z,7124
2018-04-08T12:59:41.869Z,7100
2018-04-08T13:00:51.993Z,7076
2018-04-08T13:02:01.834Z,7104
2018-04-08T13:03:11.946Z,7000
2018-04-08T13:04:21.780Z,7004
2018-04-08T13:05:31.361Z,7044
2018-04-08T13:06:41.529Z,7008
2018-04-08T13:07:51.693Z,7028
2018-04-08T13:09:01.546Z,6948
2018-04-08T13:10:11.645Z,6980
2018-04-08T13:11:21.762Z,6912
2018-04-08T13:12:31.576Z,6896
2018-04-08T13:13:40.892Z,6912
2018-04-08T13:14:50.985Z,6880
2018-04-08T13:16:01.388Z,6912
2018-04-08T13:17:11.502Z,6816
2018-04-08T13:18:21.822Z,6812
2018-04-08T13:19:31.668Z,6804
2018-04-08T13:20:41.774Z,6700
2018-04-08T13:21:51.881Z,6720
2018-04-08T13:23:01.461Z,6668
2018-04-08T13:24:11.620Z,6660
2018-04-08T13:25:21.745Z,6628
2018-04-08T13:26:31.870Z,6632
2018-04-08T13:27:41.993Z,6636
2018-04-08T13:28:52.109Z,6580
2018-04-08T13:30:02.182Z,6632
2018-04-08T13:31:11.770Z,6544
2018-04-08T13:32:21.878Z,6512
2018-04-08T13:33:31.983Z,6532
2018-04-08T13:34:42.083Z,6560
2018-04-08T13:35:52.189Z,6532
2018-04-08T13:37:02.042Z,6492
2018-04-08T13:38:11.612Z,6516
2018-04-08T13:39:21.705Z,6452
2018-04-08T13:40:31.260Z,6464
2018-04-08T13:41:41.356Z,6428
2018-04-08T13:42:51.455Z,6408
2018-04-08T13:44:01.317Z,6380
2018-04-08T13:45:11.451Z,6388
2018-04-08T13:46:21.568Z,6368
2018-04-08T13:47:31.674Z,6340
2018-04-08T13:48:41.513Z,6304
2018-04-08T13:49:51.846Z,6304
2018-04-08T13:51:01.683Z,6260
2018-04-08T13:52:11.240Z,6296
2018-04-08T13:53:21.105Z,6264
2018-04-08T13:54:31.296Z,6256
2018-04-08T13:55:40.860Z,6180
2018-04-08T13:56:50.961Z,6200
2018-04-08T13:58:01.084Z,6192
2018-04-08T13:59:10.738Z,6172
2018-04-08T14:00:20.855Z,6172
2018-04-08T14:01:31.171Z,6136
2018-04-08T14:02:41.284Z,6124
2018-04-08T14:03:51.128Z,6120
2018-04-08T14:05:01.253Z,6068
2018-04-08T14:06:11.093Z,6064
2018-04-08T14:07:21.195Z,6020
2018-04-08T14:08:31.308Z,6004
2018-04-08T14:09:41.133Z,5976
2018-04-08T14:10:51.266Z,5896
2018-04-08T14:12:01.376Z,5872
2018-04-08T14:13:11.220Z,5808
2018-04-08T14:14:21.090Z,5780
2018-04-08T14:15:31.577Z,5776
2018-04-08T14:16:41.414Z,5768
2018-04-08T14:17:51.508Z,5724
2018-04-08T14:19:01.829Z,5676
2018-04-08T14:20:11.685Z,5692
2018-04-08T14:21:21.780Z,5660
2018-04-08T14:22:31.397Z,5692
2018-04-08T14:23:41.210Z,5648
2018-04-08T14:24:51.085Z,5608
2018-04-08T14:26:01.177Z,5560
2018-04-08T14:27:11.283Z,5528
2018-04-08T14:28:21.328Z,5544
2018-04-08T14:29:31.428Z,5512
2018-04-08T14:30:41.039Z,5480
2018-04-08T14:31:50.874Z,5436
2018-04-08T14:33:00.967Z,5432
2018-04-08T14:34:11.134Z,5412
2018-04-08T14:35:21.236Z,5396
2018-04-08T14:36:31.365Z,5376
2018-04-08T14:37:41.486Z,5316
2018-04-08T14:38:51.827Z,5276
2018-04-08T14:40:01.695Z,5232
2018-04-08T14:41:11.813Z,5236
2018-04-08T14:42:21.641Z,5192
2018-04-08T14:43:31.481Z,5148
2018-04-08T14:44:41.307Z,5068
2018-04-08T14:45:50.895Z,5012
2018-04-08T14:47:00.489Z,5008
2018-04-08T14:48:10.342Z,4968
2018-04-08T14:49:20.191Z,4952
2018-04-08T14:50:30.020Z,4940
2018-04-08T14:51:40.124Z,4920
2018-04-08T14:52:50.215Z,4840
2018-04-08T14:54:00.072Z,4856
2018-04-08T14:55:10.675Z,4816
2018-04-08T14:56:20.513Z,4764
2018-04-08T14:57:30.765Z,4736
2018-04-08T14:58:40.888Z,4720
2018-04-08T14:59:51.059Z,4692
2018-04-08T15:01:00.641Z,4676
2018-04-08T15:02:10.238Z,4640
2018-04-08T15:03:20.134Z,4612
2018-04-08T15:04:29.969Z,4568
2018-04-08T15:05:40.216Z,4520
2018-04-08T15:06:50.118Z,4496
2018-04-08T15:08:00.323Z,4456
2018-04-08T15:09:10.210Z,4396
2018-04-08T15:10:20.082Z,4364
2018-04-08T15:11:30.217Z,4332
2018-04-08T15:12:40.343Z,4328
2018-04-08T15:13:50.487Z,4284
2018-04-08T15:15:00.636Z,4260
2018-04-08T15:16:10.753Z,4260
2018-04-08T15:17:20.861Z,4204
2018-04-08T15:18:30.429Z,4180
2018-04-08T15:19:40.008Z,4164
2018-04-08T15:20:49.863Z,4120
2018-04-08T15:21:59.679Z,4108
2018-04-08T15:23:08.968Z,4080
2018-04-08T15:24:18.825Z,4060
2018-04-08T15:25:28.963Z,4036
2018-04-08T15:26:39.084Z,4024
2018-04-08T15:27:49.189Z,3996
2018-04-08T15:28:59.290Z,3944
2018-04-08T15:30:09.412Z,3904
2018-04-08T15:31:19.273Z,3888
2018-04-08T15:32:29.436Z,3864
2018-04-08T15:33:39.264Z,3816
2018-04-08T15:34:49.079Z,3768
2018-04-08T15:35:59.174Z,3728
2018-04-08T15:37:09.339Z,3736
2018-04-08T15:38:19.797Z,3704
2018-04-08T15:39:29.924Z,3668
2018-04-08T15:40:40.018Z,3720
2018-04-08T15:41:50.116Z,3908
2018-04-08T15:42:59.992Z,3580
2018-04-08T15:44:10.092Z,3524
2018-04-08T15:45:20.225Z,3488
2018-04-08T15:46:30.368Z,3444
2018-04-08T15:47:40.484Z,3416
2018-04-08T15:48:50.586Z,3376
2018-04-08T15:50:00.691Z,3352
2018-04-08T15:51:10.805Z,3328
2018-04-08T15:52:20.668Z,3284
2018-04-08T15:53:30.776Z,3228
2018-04-08T15:54:40.859Z,3184
2018-04-08T15:55:50.999Z,3140
2018-04-08T15:57:01.089Z,3112
2018-04-08T15:58:11.293Z,3064
2018-04-08T15:59:21.450Z,3024
2018-04-08T16:00:31.266Z,2996
2018-04-08T16:01:41.098Z,2960
2018-04-08T16:02:51.367Z,2944
2018-04-08T16:04:01.550Z,2912
2018-04-08T16:05:11.415Z,2868
2018-04-08T16:06:21.537Z,2828
2018-04-08T16:07:31.393Z,2792
2018-04-08T16:08:41.513Z,2752
2018-04-08T16:09:51.638Z,2708
2018-04-08T16:11:00.937Z,2660
2018-04-08T16:12:11.057Z,2628
2018-04-08T16:13:21.206Z,2592
2018-04-08T16:14:31.293Z,2544
2018-04-08T16:15:41.147Z,2504
2018-04-08T16:16:51.264Z,2468
2018-04-08T16:18:00.854Z,2424
2018-04-08T16:19:10.460Z,2388
2018-04-08T16:20:20.891Z,2344
2018-04-08T16:21:30.488Z,2304
2018-04-08T16:22:39.820Z,2268
2018-04-08T16:23:49.399Z,2228
2018-04-08T16:24:59.582Z,2188
2018-04-08T16:26:09.421Z,2144
2018-04-08T16:27:19.545Z,2096
2018-04-08T16:28:29.158Z,2064